createdAt,value
2022-09-15T00:03:41.370Z,8.10
2022-09-15T00:08:44.886Z,9.00
2022-09-15T00:13:48.297Z,8.50
2022-09-15T00:18:51.930Z,7.50
2022-09-15T00:23:55.531Z,7.80
2022-09-15T00:29:00.344Z,7.90
2022-09-15T00:34:04.222Z,8.30
2022-09-15T00:39:07.408Z,8.10
2022-09-15T00:49:28.261Z,7.60
2022-09-15T00:54:43.557Z,7.60
2022-09-15T00:59:48.715Z,7.80
2022-09-15T01:04:58.020Z,7.90
2022-09-15T01:10:08.126Z,7.40
2022-09-15T01:15:11.888Z,7.80
2022-09-15T01:20:30.522Z,7.80
2022-09-15T01:26:02.136Z,7.60
2022-09-15T01:31:13.967Z,8.20
2022-09-15T01:36:37.187Z,7.50
2022-09-15T01:41:45.815Z,7.80
2022-09-15T01:46:57.299Z,8.10
2022-09-15T01:52:01.242Z,7.80
2022-09-15T01:57:04.551Z,7.80
2022-09-15T02:02:15.074Z,7.40
2022-09-15T02:07:45.586Z,7.20
2022-09-15T02:12:52.677Z,7.30
2022-09-15T02:17:58.242Z,7.70
2022-09-15T02:23:08.721Z,7.80
2022-09-15T02:28:15.392Z,7.60
2022-09-15T02:33:24.343Z,7.10
2022-09-15T02:38:33.807Z,6.80
2022-09-15T02:43:45.552Z,7.00
2022-09-15T02:48:49.338Z,7.90
2022-09-15T02:53:53.568Z,7.50
2022-09-15T02:58:56.675Z,7.20
2022-09-15T03:03:59.779Z,6.80
2022-09-15T03:14:10.906Z,6.80
2022-09-15T03:19:14.215Z,7.30
2022-09-15T03:29:22.170Z,7.10
2022-09-15T03:34:25.375Z,7.50
2022-09-15T03:44:31.590Z,7.50
2022-09-15T03:49:35.105Z,7.40
2022-09-15T03:54:38.324Z,7.10
2022-09-15T03:59:41.622Z,7.80
2022-09-15T04:09:48.045Z,7.90
2022-09-15T04:14:51.424Z,7.50
2022-09-15T04:19:54.786Z,7.20
2022-09-15T04:35:06.273Z,9.00
2022-09-15T04:40:10.577Z,8.10
2022-09-15T04:45:14.078Z,7.30
2022-09-15T04:50:17.591Z,7.50
2022-09-15T04:55:20.908Z,7.00
2022-09-15T05:05:28.645Z,7.70
2022-09-15T05:10:32.118Z,8.50
2022-09-15T05:15:35.476Z,9.00
2022-09-15T05:25:41.775Z,8.10
2022-09-15T05:30:45.254Z,8.30
2022-09-15T05:35:53.583Z,9.00
2022-09-15T05:41:11.681Z,8.70
2022-09-15T05:46:16.302Z,9.40
2022-09-15T05:51:21.277Z,10.80
2022-09-15T05:56:24.491Z,9.50
2022-09-15T06:01:31.358Z,9.30
2022-09-15T06:06:34.692Z,9.20
2022-09-15T06:11:38.104Z,9.50
2022-09-15T06:16:41.193Z,9.80
2022-09-15T06:21:44.724Z,9.30
2022-09-15T06:26:48.241Z,8.40
2022-09-15T06:31:52.257Z,7.80
2022-09-15T06:36:56.784Z,7.30
2022-09-15T06:42:02.614Z,6.80
2022-09-15T06:47:07.639Z,7.10
2022-09-15T06:52:10.837Z,7.30
2022-09-15T06:57:13.951Z,6.30
2022-09-15T07:02:17.657Z,7.20
2022-09-15T07:07:20.971Z,6.00
2022-09-15T07:12:24.078Z,6.20
2022-09-15T07:17:27.483Z,5.20
2022-09-15T07:22:30.677Z,4.40
2022-09-15T07:27:33.962Z,4.30
2022-09-15T07:32:37.829Z,3.70
2022-09-15T07:37:40.935Z,3.60
2022-09-15T07:42:45.685Z,3.50
2022-09-15T07:47:50.021Z,3.20
2022-09-15T07:52:57.421Z,2.80
2022-09-15T07:58:01.655Z,2.70
2022-09-15T08:03:05.475Z,2.00
2022-09-15T08:08:10.076Z,2.70
2022-09-15T08:13:13.338Z,2.30
2022-09-15T08:18:17.557Z,1.90
2022-09-15T08:23:20.663Z,2.00
2022-09-15T08:28:24.038Z,2.00
2022-09-15T08:33:28.551Z,1.90
2022-09-15T08:38:32.394Z,2.00
2022-09-15T08:43:59.814Z,1.60
2022-09-15T08:49:30.618Z,1.70
2022-09-15T08:54:39.918Z,2.00
2022-09-15T08:59:43.943Z,1.60
2022-09-15T09:05:09.067Z,2.00
2022-09-15T09:10:37.055Z,1.80
2022-09-15T09:15:58.574Z,1.70
2022-09-15T09:21:10.812Z,1.70
2022-09-15T09:26:15.627Z,1.70
2022-09-15T09:31:23.142Z,1.60
2022-09-15T09:36:27.397Z,1.70
2022-09-15T09:41:39.211Z,2.00
2022-09-15T09:46:43.023Z,1.80
2022-09-15T09:51:52.592Z,1.60
2022-09-15T09:57:17.506Z,1.70
2022-09-15T10:02:21.945Z,1.70
2022-09-15T10:07:27.115Z,2.10
2022-09-15T10:12:39.879Z,1.80
2022-09-15T10:17:47.235Z,1.70
2022-09-15T10:22:51.159Z,1.90
2022-09-15T10:28:11.476Z,1.60
2022-09-15T10:33:23.582Z,1.60
2022-09-15T10:38:34.329Z,1.80
2022-09-15T10:44:02.461Z,1.60
2022-09-15T10:49:22.570Z,1.80
2022-09-15T10:55:16.566Z,1.60
2022-09-15T11:00:23.561Z,1.60
2022-09-15T11:05:41.210Z,1.50
2022-09-15T11:11:00.214Z,1.70
2022-09-15T11:16:12.050Z,1.40
2022-09-15T11:21:53.911Z,1.60
2022-09-15T11:27:22.539Z,1.60
2022-09-15T11:32:34.532Z,1.60
2022-09-15T11:37:46.464Z,1.90
2022-09-15T11:42:57.981Z,2.10
2022-09-15T11:48:12.823Z,1.80
2022-09-15T11:53:20.033Z,1.90
2022-09-15T11:58:50.680Z,1.80
2022-09-15T12:04:02.896Z,1.50
2022-09-15T12:09:08.101Z,1.60
2022-09-15T12:14:21.907Z,1.50
2022-09-15T12:19:34.229Z,1.70
2022-09-15T12:24:46.131Z,1.50
2022-09-15T12:29:55.056Z,1.60
2022-09-15T12:35:18.217Z,1.80
2022-09-15T12:40:42.640Z,1.70
2022-09-15T12:45:58.829Z,1.50
2022-09-15T12:51:05.495Z,1.60
2022-09-15T12:56:21.473Z,1.40
2022-09-15T13:01:25.223Z,2.00
2022-09-15T13:06:34.531Z,1.80
2022-09-15T13:11:42.790Z,2.00
2022-09-15T13:16:55.159Z,1.30
2022-09-15T13:22:16.821Z,1.70
2022-09-15T13:27:29.365Z,1.60
2022-09-15T13:32:52.870Z,1.70
2022-09-15T13:38:24.960Z,1.50
2022-09-15T13:43:56.518Z,1.50
2022-09-15T13:49:13.536Z,1.70
2022-09-15T13:54:20.104Z,1.70
2022-09-15T13:59:30.540Z,1.30
2022-09-15T14:04:34.122Z,1.80
2022-09-15T14:09:48.145Z,1.30
2022-09-15T14:14:55.583Z,1.70
2022-09-15T14:20:00.959Z,1.60
2022-09-15T14:25:16.976Z,1.30
2022-09-15T14:30:25.286Z,1.40
2022-09-15T14:35:38.536Z,1.20
2022-09-15T14:40:42.902Z,1.30
2022-09-15T14:46:02.695Z,1.50
2022-09-15T14:56:33.556Z,1.50
2022-09-15T15:01:45.962Z,1.60
2022-09-15T15:12:29.254Z,1.30
2022-09-15T15:17:39.011Z,1.40
2022-09-15T15:22:47.749Z,1.30
2022-09-15T15:27:53.418Z,1.30
2022-09-15T15:33:03.904Z,1.20
2022-09-15T15:38:18.672Z,0.80
2022-09-15T15:43:26.502Z,1.00
2022-09-15T15:48:37.376Z,0.90
2022-09-15T15:53:43.861Z,1.20
2022-09-15T15:58:48.502Z,1.10
2022-09-15T16:03:53.247Z,0.90
2022-09-15T16:08:58.607Z,1.10
2022-09-15T16:14:02.365Z,1.00
2022-09-15T16:19:06.248Z,0.90
2022-09-15T16:24:16.348Z,1.20
2022-09-15T16:29:20.550Z,1.20
2022-09-15T16:34:23.973Z,1.10
2022-09-15T16:39:27.787Z,1.30
2022-09-15T16:44:39.635Z,1.30
2022-09-15T16:49:44.365Z,1.20
2022-09-15T16:54:47.547Z,1.40
2022-09-15T16:59:51.834Z,1.20
2022-09-15T17:04:56.833Z,1.50
2022-09-15T17:10:00.347Z,1.20
2022-09-15T17:15:23.011Z,1.20
2022-09-15T17:20:28.565Z,1.20
2022-09-15T17:25:40.901Z,1.40
2022-09-15T17:30:52.109Z,1.40
2022-09-15T17:36:00.521Z,1.30
2022-09-15T17:41:04.450Z,1.30
2022-09-15T17:46:11.400Z,1.70
2022-09-15T17:51:20.178Z,5.60
2022-09-15T17:56:24.233Z,11.40
2022-09-15T18:01:28.989Z,8.40
2022-09-15T18:06:39.473Z,8.30
2022-09-15T18:11:51.943Z,6.70
2022-09-15T18:16:57.746Z,6.80
2022-09-15T18:22:01.976Z,6.80
2022-09-15T18:27:07.022Z,4.70
2022-09-15T18:32:10.624Z,2.50
2022-09-15T18:37:14.864Z,3.40
2022-09-15T18:42:18.578Z,3.80
2022-09-15T18:47:22.577Z,2.00
2022-09-15T18:52:26.820Z,1.80
2022-09-15T18:57:42.375Z,2.10
2022-09-15T19:02:47.913Z,3.00
2022-09-15T19:07:56.245Z,5.00
2022-09-15T19:13:01.079Z,3.20
2022-09-15T19:18:08.820Z,3.60
2022-09-15T19:23:18.615Z,3.00
2022-09-15T19:28:23.260Z,4.00
2022-09-15T19:33:29.256Z,3.20
2022-09-15T19:38:38.887Z,2.70
2022-09-15T19:43:43.507Z,3.70
2022-09-15T19:48:50.136Z,3.80
2022-09-15T19:53:57.203Z,3.30
2022-09-15T19:59:07.679Z,3.10
2022-09-15T20:04:12.795Z,2.90
2022-09-15T20:09:18.139Z,3.00
2022-09-15T20:14:21.929Z,2.60
2022-09-15T20:19:27.530Z,2.90
2022-09-15T20:24:32.168Z,3.10
2022-09-15T20:29:36.005Z,3.20
2022-09-15T20:34:40.162Z,3.10
2022-09-15T20:39:46.515Z,2.90
2022-09-15T20:44:50.121Z,3.00
2022-09-15T20:49:53.441Z,3.20
2022-09-15T21:00:00.019Z,2.60
2022-09-15T21:05:04.292Z,2.30
2022-09-15T21:10:11.780Z,3.00
2022-09-15T21:15:16.212Z,2.50
2022-09-15T21:20:19.980Z,2.80
2022-09-15T21:25:24.288Z,2.60
2022-09-15T21:30:27.729Z,2.70
2022-09-15T21:35:32.651Z,2.40
2022-09-15T21:40:37.085Z,2.50
2022-09-15T21:45:40.774Z,2.80
2022-09-15T21:50:53.844Z,2.60
2022-09-15T21:56:10.465Z,2.60
2022-09-15T22:01:29.562Z,2.50
2022-09-15T22:06:40.663Z,2.30
2022-09-15T22:11:44.255Z,2.60
2022-09-15T22:16:47.666Z,2.60
2022-09-15T22:21:50.980Z,2.30
2022-09-15T22:26:54.187Z,2.30
2022-09-15T22:31:57.477Z,2.90
2022-09-15T22:42:04.428Z,2.40
2022-09-15T22:47:08.044Z,2.60
2022-09-15T22:52:11.151Z,2.10
2022-09-15T22:57:14.256Z,2.70
2022-09-15T23:07:20.569Z,3.80
2022-09-15T23:12:23.572Z,2.30
2022-09-15T23:17:27.599Z,2.70
2022-09-15T23:22:30.807Z,2.40
2022-09-15T23:27:33.915Z,2.40
2022-09-15T23:32:37.327Z,2.30
2022-09-15T23:37:40.741Z,2.20
2022-09-15T23:42:43.949Z,2.10
2022-09-15T23:47:47.156Z,2.10
2022-09-15T23:52:50.363Z,1.90
2022-09-15T23:57:53.675Z,3.00
